Terminal Aerodrome Forecast
Issued by NWS Norman, OK

Home | Current Version | Previous Version | Text Only | Print | Product List | Glossary On
Versions: 1 2 3 4 5 6 7 8 9 10 11 12 13 14 15 16 17 18 19 20 21 22 23 24 25 26 27
000
FTUS44 KOUN 271126
TAFOKC
TAF
KOKC 271126Z 2712/2812 05018G26KT P6SM BKN008 OVC015
      TEMPO 2712/2714 5SM -RA BR
     FM271500 05016G25KT 5SM -RA BR OVC008
      TEMPO 2715/2719 3SM -TSRA BR OVC015CB
     FM271900 05015G24KT 4SM RA BR BKN008 OVC015=

USA.gov is the U.S. government's official web portal to all federal, state and local government web resources and services.